Time;durP1;ratioP1;P1;durP2;ratioP2;P2;SDS_P1;SDS_P2;PMS_P1;PMS_P2;Temp;Humidity;BMP_temperature;BMP_pressure;BME280_temperature;BME280_humidity;BME280_pressure;Samples;Min_cycle;Max_cycle;Signal;HPM_P1;HPM_P2
2022/08/14 00:00:12;;;;;;;4.70;4.30;;;;;;;;;;6272193;22;20194;-74
2022/08/14 00:02:38;;;;;;;6.82;4.40;;;;;;;;;;6272996;22;20152;-73
2022/08/14 00:05:04;;;;;;;6.68;4.10;;;;;;;;;;6272773;22;20642;-74
2022/08/14 00:07:29;;;;;;;5.65;4.30;;;;;;;;;;6272993;22;20486;-73
2022/08/14 00:09:54;;;;;;;5.20;4.70;;;;;;;;;;6271499;22;20179;-73
2022/08/14 00:12:20;;;;;;;7.15;4.32;;;;;;;;;;6273196;22;20376;-73
2022/08/14 00:14:45;;;;;;;6.43;4.63;;;;;;;;;;6274107;22;20663;-74
2022/08/14 00:17:10;;;;;;;4.88;4.28;;;;;;;;;;6274232;22;20172;-73
2022/08/14 00:19:36;;;;;;;5.57;4.50;;;;;;;;;;6273860;22;20149;-74
2022/08/14 00:22:01;;;;;;;4.72;4.18;;;;;;;;;;6271625;22;20535;-73
2022/08/14 00:24:26;;;;;;;5.63;4.70;;;;;;;;;;6274071;22;20151;-73
2022/08/14 00:26:52;;;;;;;7.13;4.43;;;;;;;;;;6273784;22;20190;-73
2022/08/14 00:29:17;;;;;;;4.95;4.45;;;;;;;;;;6273271;22;20408;-74
2022/08/14 00:31:42;;;;;;;5.45;4.40;;;;;;;;;;6272069;22;20144;-74
2022/08/14 00:34:07;;;;;;;5.60;5.10;;;;;;;;;;6272400;22;20144;-74
2022/08/14 00:36:33;;;;;;;6.85;4.85;;;;;;;;;;6273156;22;20452;-74
2022/08/14 00:38:58;;;;;;;5.20;4.70;;;;;;;;;;6273387;22;20144;-74
2022/08/14 00:41:28;;;;;;;7.63;5.10;;;;;;;;;;6272775;22;20189;-75
2022/08/14 00:43:54;;;;;;;5.30;4.90;;;;;;;;;;6273661;22;20489;-72
2022/08/14 00:46:19;;;;;;;5.45;5.05;;;;;;;;;;6273785;22;20140;-73
2022/08/14 00:48:44;;;;;;;7.90;4.90;;;;;;;;;;6273728;22;20584;-73
2022/08/14 00:51:09;;;;;;;6.50;4.90;;;;;;;;;;6272570;22;20655;-73
2022/08/14 00:53:35;;;;;;;8.68;4.68;;;;;;;;;;6273242;22;20356;-73
2022/08/14 00:56:01;;;;;;;7.95;5.47;;;;;;;;;;6273092;22;20167;-73
2022/08/14 00:58:29;;;;;;;6.63;5.20;;;;;;;;;;6271954;22;20184;-73
2022/08/14 01:00:55;;;;;;;5.25;4.55;;;;;;;;;;6273431;22;20141;-74
2022/08/14 01:03:20;;;;;;;5.68;4.90;;;;;;;;;;6273462;22;20148;-73
2022/08/14 01:05:48;;;;;;;5.60;5.10;;;;;;;;;;6271536;22;20144;-73
2022/08/14 01:08:14;;;;;;;6.32;4.80;;;;;;;;;;6273862;22;20567;-74
2022/08/14 01:10:50;;;;;;;5.50;4.82;;;;;;;;;;6272395;22;20180;-73
2022/08/14 01:13:18;;;;;;;6.57;4.80;;;;;;;;;;6273682;22;20124;-74
2022/08/14 01:15:43;;;;;;;5.40;4.90;;;;;;;;;;6272456;22;20628;-74
2022/08/14 01:21:05;;;;;;;6.03;5.40;;;;;;;;;;6275168;22;20209;-74
2022/08/14 01:23:30;;;;;;;5.47;5.03;;;;;;;;;;6275613;22;20259;-75
2022/08/14 01:25:57;;;;;;;6.68;5.38;;;;;;;;;;6275389;22;20172;-74
2022/08/14 01:28:23;;;;;;;6.18;5.50;;;;;;;;;;6299946;22;20178;-74
2022/08/14 01:30:54;;;;;;;6.25;5.65;;;;;;;;;;6273943;22;20140;-74
2022/08/14 01:33:20;;;;;;;5.85;5.28;;;;;;;;;;6274159;22;20141;-74
2022/08/14 01:35:45;;;;;;;7.63;5.40;;;;;;;;;;6273422;22;20149;-74
2022/08/14 01:38:14;;;;;;;5.78;5.28;;;;;;;;;;6275291;22;20164;-74
2022/08/14 01:40:40;;;;;;;6.63;6.03;;;;;;;;;;6274493;22;20161;-74
2022/08/14 01:43:16;;;;;;;7.28;5.20;;;;;;;;;;6274076;22;20191;-73
2022/08/14 01:45:41;;;;;;;6.25;5.65;;;;;;;;;;6275504;22;20258;-74
2022/08/14 01:48:07;;;;;;;6.80;5.90;;;;;;;;;;6275590;22;20199;-74
2022/08/14 01:50:33;;;;;;;5.97;5.45;;;;;;;;;;6275229;22;20172;-74
2022/08/14 01:52:58;;;;;;;6.18;5.68;;;;;;;;;;6273737;22;20198;-74
2022/08/14 01:55:29;;;;;;;6.47;5.83;;;;;;;;;;6274224;22;20172;-74
2022/08/14 01:57:54;;;;;;;5.85;5.35;;;;;;;;;;6273979;22;20488;-74
2022/08/14 02:00:19;;;;;;;6.38;5.78;;;;;;;;;;6274976;22;20176;-74
2022/08/14 02:02:45;;;;;;;6.63;5.63;;;;;;;;;;6274234;22;20151;-73
2022/08/14 02:05:11;;;;;;;6.80;6.07;;;;;;;;;;6275491;22;20148;-73
2022/08/14 02:07:36;;;;;;;5.57;5.10;;;;;;;;;;6275071;22;20519;-74
2022/08/14 02:10:03;;;;;;;7.28;5.70;;;;;;;;;;6273359;22;20187;-73
2022/08/14 02:12:29;;;;;;;6.57;5.88;;;;;;;;;;6274445;22;20176;-74
2022/08/14 02:14:55;;;;;;;7.95;6.07;;;;;;;;;;6273430;22;20149;-74
2022/08/14 02:17:22;;;;;;;7.45;5.63;;;;;;;;;;6274361;22;20168;-74
2022/08/14 02:19:47;;;;;;;7.15;5.80;;;;;;;;;;6274893;22;20148;-73
2022/08/14 02:22:13;;;;;;;6.60;5.55;;;;;;;;;;6275342;22;20660;-74
2022/08/14 02:24:38;;;;;;;10.45;6.18;;;;;;;;;;6274586;22;20152;-74
2022/08/14 02:27:04;;;;;;;7.50;6.22;;;;;;;;;;6275408;22;20200;-74
2022/08/14 02:29:31;;;;;;;9.00;6.28;;;;;;;;;;6275121;22;20255;-73
2022/08/14 02:31:57;;;;;;;6.65;5.90;;;;;;;;;;6275065;22;20588;-74
2022/08/14 02:34:28;;;;;;;12.43;6.85;;;;;;;;;;6274191;22;20506;-73
2022/08/14 02:36:57;;;;;;;7.82;5.80;;;;;;;;;;6274890;22;20631;-74
2022/08/14 02:39:22;;;;;;;6.45;5.85;;;;;;;;;;6274852;22;20144;-74
2022/08/14 02:41:50;;;;;;;7.82;7.03;;;;;;;;;;6272523;22;20152;-74
2022/08/14 02:44:17;;;;;;;6.57;5.97;;;;;;;;;;6273862;22;20153;-74
2022/08/14 02:46:43;;;;;;;7.47;6.70;;;;;;;;;;6274817;22;20176;-75
2022/08/14 02:49:09;;;;;;;7.57;6.88;;;;;;;;;;6274161;22;20221;-74
2022/08/14 02:51:35;;;;;;;7.15;6.55;;;;;;;;;;6275060;22;20191;-74
2022/08/14 02:54:00;;;;;;;8.23;6.65;;;;;;;;;;6273740;22;20141;-74
2022/08/14 02:56:26;;;;;;;7.03;6.25;;;;;;;;;;6274457;22;20150;-74
2022/08/14 02:58:53;;;;;;;7.47;6.70;;;;;;;;;;6298767;22;20199;-74
2022/08/14 03:01:19;;;;;;;8.95;6.90;;;;;;;;;;6273557;22;20211;-74
2022/08/14 03:03:45;;;;;;;7.60;6.50;;;;;;;;;;6274413;22;20144;-73
2022/08/14 03:06:12;;;;;;;6.90;6.20;;;;;;;;;;6275253;22;20450;-74
2022/08/14 03:08:38;;;;;;;7.07;6.25;;;;;;;;;;6274418;22;20221;-74
2022/08/14 03:11:06;;;;;;;8.38;6.95;;;;;;;;;;6274928;22;20148;-74
2022/08/14 03:13:51;;;;;;;8.93;6.97;;;;;;;;;;6272968;22;20149;-74
2022/08/14 03:16:19;;;;;;;7.63;6.93;;;;;;;;;;6273398;22;20538;-74
2022/08/14 03:18:45;;;;;;;8.50;7.38;;;;;;;;;;6272586;22;20222;-74
2022/08/14 03:21:15;;;;;;;8.70;7.95;;;;;;;;;;6274303;22;20149;-73
2022/08/14 03:23:41;;;;;;;7.88;6.68;;;;;;;;;;6274423;22;20174;-73
2022/08/14 03:26:10;;;;;;;7.68;6.97;;;;;;;;;;6274981;22;20148;-74
2022/08/14 03:28:39;;;;;;;8.10;7.32;;;;;;;;;;6274463;22;20168;-74
2022/08/14 03:31:05;;;;;;;8.45;7.25;;;;;;;;;;6273384;22;20145;-74
2022/08/14 03:33:30;;;;;;;7.85;7.05;;;;;;;;;;6274456;22;20151;-74
2022/08/14 03:35:55;;;;;;;9.55;7.22;;;;;;;;;;6274590;22;20145;-74
2022/08/14 03:38:20;;;;;;;8.00;7.20;;;;;;;;;;6273682;22;20165;-74
2022/08/14 03:40:49;;;;;;;8.03;7.10;;;;;;;;;;6273685;22;20493;-74
2022/08/14 03:43:14;;;;;;;7.85;7.10;;;;;;;;;;6274643;22;20357;-74
2022/08/14 03:45:39;;;;;;;8.65;7.30;;;;;;;;;;6274290;22;20161;-75
2022/08/14 03:48:18;;;;;;;7.88;7.15;;;;;;;;;;6272079;22;20164;-74
2022/08/14 03:50:44;;;;;;;8.75;7.95;;;;;;;;;;6272434;22;20207;-75
2022/08/14 03:53:10;;;;;;;8.50;7.70;;;;;;;;;;6273844;22;20148;-74
2022/08/14 03:55:37;;;;;;;10.20;7.47;;;;;;;;;;6272766;22;20166;-74
2022/08/14 03:58:02;;;;;;;8.75;7.47;;;;;;;;;;6273964;22;20180;-75
2022/08/14 04:00:28;;;;;;;9.10;6.85;;;;;;;;;;6273649;22;20231;-74
2022/08/14 04:02:53;;;;;;;8.32;7.53;;;;;;;;;;6272169;22;20216;-74
2022/08/14 04:05:19;;;;;;;8.70;7.80;;;;;;;;;;6273612;22;20149;-74
2022/08/14 04:07:45;;;;;;;8.60;7.72;;;;;;;;;;6273538;22;20175;-73
2022/08/14 04:10:11;;;;;;;8.27;7.47;;;;;;;;;;6273835;22;20559;-73
2022/08/14 04:12:36;;;;;;;8.60;7.82;;;;;;;;;;6273656;22;20180;-75
2022/08/14 04:15:02;;;;;;;8.50;7.78;;;;;;;;;;6273970;22;20145;-73
2022/08/14 04:17:28;;;;;;;8.05;7.25;;;;;;;;;;6272387;22;20164;-73
2022/08/14 04:19:53;;;;;;;9.20;8.40;;;;;;;;;;6273122;22;20612;-74
2022/08/14 04:22:20;;;;;;;10.23;8.27;;;;;;;;;;6272984;22;20448;-73
2022/08/14 04:24:45;;;;;;;8.70;7.90;;;;;;;;;;6272165;22;20227;-73
2022/08/14 04:27:11;;;;;;;9.07;8.27;;;;;;;;;;6273332;22;20207;-73
2022/08/14 04:29:37;;;;;;;9.43;8.18;;;;;;;;;;6273058;22;20644;-73
2022/08/14 04:32:04;;;;;;;9.93;8.23;;;;;;;;;;6272480;22;20171;-73
2022/08/14 04:34:29;;;;;;;8.80;7.60;;;;;;;;;;6273465;22;20136;-73
2022/08/14 04:45:07;;;;;;;9.75;8.75;;;;;;;;;;6273307;22;20139;-73
2022/08/14 04:50:16;;;;;;;10.00;8.60;;;;;;;;;;6273318;22;20515;-73
2022/08/14 04:52:41;;;;;;;9.33;8.43;;;;;;;;;;6272520;22;20144;-74
2022/08/14 04:55:07;;;;;;;9.43;8.27;;;;;;;;;;6272856;22;20358;-73
2022/08/14 04:57:33;;;;;;;13.27;8.38;;;;;;;;;;6272034;22;20421;-74
2022/08/14 04:59:58;;;;;;;9.48;8.55;;;;;;;;;;6273797;22;20145;-74
2022/08/14 05:02:26;;;;;;;9.23;8.33;;;;;;;;;;6273000;22;20214;-74
2022/08/14 05:04:51;;;;;;;9.63;8.73;;;;;;;;;;6272891;22;20358;-74
2022/08/14 05:07:16;;;;;;;10.05;8.88;;;;;;;;;;6273876;22;20476;-74
2022/08/14 05:09:41;;;;;;;9.40;8.57;;;;;;;;;;6272614;22;20168;-74
2022/08/14 05:12:07;;;;;;;9.63;8.77;;;;;;;;;;6273595;22;20596;-74
2022/08/14 05:14:32;;;;;;;11.25;9.32;;;;;;;;;;6271749;22;20421;-74
2022/08/14 05:16:57;;;;;;;8.55;7.80;;;;;;;;;;6273517;22;20632;-74
2022/08/14 05:19:26;;;;;;;10.23;9.20;;;;;;;;;;6272908;22;20153;-74
2022/08/14 05:21:55;;;;;;;11.05;9.02;;;;;;;;;;6272751;22;20144;-74
2022/08/14 05:24:20;;;;;;;10.18;9.07;;;;;;;;;;6272831;22;20488;-74
2022/08/14 05:26:45;;;;;;;8.68;7.78;;;;;;;;;;6273971;22;20168;-73
2022/08/14 05:29:10;;;;;;;8.88;7.97;;;;;;;;;;6273130;22;20172;-73
2022/08/14 05:31:39;;;;;;;9.07;8.27;;;;;;;;;;6270370;22;20141;-74
2022/08/14 05:34:04;;;;;;;9.27;7.88;;;;;;;;;;6272234;22;20199;-74
2022/08/14 05:36:32;;;;;;;11.48;8.80;;;;;;;;;;6273008;22;20152;-74
2022/08/14 05:38:57;;;;;;;8.63;7.72;;;;;;;;;;6272392;22;20152;-74
2022/08/14 05:41:22;;;;;;;8.73;8.02;;;;;;;;;;6270506;22;20639;-74
2022/08/14 05:43:48;;;;;;;9.90;9.10;;;;;;;;;;6273054;22;20144;-73
2022/08/14 05:46:17;;;;;;;9.75;8.90;;;;;;;;;;6273563;22;20153;-73
2022/08/14 05:48:42;;;;;;;9.43;8.43;;;;;;;;;;6272725;22;20164;-73
2022/08/14 05:51:07;;;;;;;12.40;9.07;;;;;;;;;;6272682;22;20171;-73
2022/08/14 05:53:32;;;;;;;9.67;8.77;;;;;;;;;;6270610;22;20156;-73
2022/08/14 05:55:58;;;;;;;12.17;8.63;;;;;;;;;;6271113;22;20362;-73
2022/08/14 05:58:23;;;;;;;9.48;8.55;;;;;;;;;;6272634;22;20398;-73
2022/08/14 06:00:48;;;;;;;10.32;8.35;;;;;;;;;;6267765;22;20192;-73
2022/08/14 06:03:17;;;;;;;11.55;9.25;;;;;;;;;;6272814;22;20156;-73
2022/08/14 06:05:44;;;;;;;10.32;8.85;;;;;;;;;;6274663;22;20152;-73
2022/08/14 06:08:19;;;;;;;9.32;8.32;;;;;;;;;;6275514;22;20518;-73
2022/08/14 06:10:45;;;;;;;9.80;8.90;;;;;;;;;;6299148;22;20179;-73
2022/08/14 06:13:11;;;;;;;10.75;8.73;;;;;;;;;;6274560;22;20141;-73
2022/08/14 06:15:36;;;;;;;9.45;8.73;;;;;;;;;;6274986;22;20167;-74
2022/08/14 06:18:01;;;;;;;11.35;9.18;;;;;;;;;;6274603;22;20635;-73
2022/08/14 06:20:27;;;;;;;9.13;8.32;;;;;;;;;;6275105;22;20148;-73
2022/08/14 06:22:52;;;;;;;9.07;8.18;;;;;;;;;;6298745;22;20183;-74
2022/08/14 06:25:18;;;;;;;9.43;8.52;;;;;;;;;;6274703;22;20342;-73
2022/08/14 06:27:45;;;;;;;10.00;9.10;;;;;;;;;;6274476;22;20168;-73
2022/08/14 06:30:11;;;;;;;9.98;8.55;;;;;;;;;;6275276;22;20172;-73
2022/08/14 06:32:36;;;;;;;8.98;8.15;;;;;;;;;;6274430;22;20239;-73
2022/08/14 06:35:05;;;;;;;9.20;8.40;;;;;;;;;;6274374;22;20245;-74
2022/08/14 06:37:43;;;;;;;11.38;8.07;;;;;;;;;;6298162;22;20258;-73
2022/08/14 06:40:09;;;;;;;9.05;8.35;;;;;;;;;;6274576;22;20476;-73
2022/08/14 06:42:34;;;;;;;9.30;8.30;;;;;;;;;;6274527;22;20148;-74
2022/08/14 06:45:00;;;;;;;8.93;8.03;;;;;;;;;;6273847;22;20152;-73
2022/08/14 06:47:25;;;;;;;9.23;8.05;;;;;;;;;;6274658;22;20710;-73
2022/08/14 06:49:50;;;;;;;8.80;8.00;;;;;;;;;;6272334;22;20206;-73
2022/08/14 06:52:15;;;;;;;11.60;8.90;;;;;;;;;;6274233;22;20168;-73
2022/08/14 06:54:41;;;;;;;10.67;8.13;;;;;;;;;;6274725;22;20354;-73
2022/08/14 06:57:07;;;;;;;8.55;7.72;;;;;;;;;;6274923;22;20464;-74
2022/08/14 06:59:32;;;;;;;8.93;8.13;;;;;;;;;;6274467;22;20180;-74
2022/08/14 07:07:25;;;;;;;10.93;7.85;;;;;;;;;;6274032;22;20178;-73
2022/08/14 07:09:50;;;;;;;9.18;8.15;;;;;;;;;;6274761;22;20270;-73
2022/08/14 07:12:15;;;;;;;10.37;8.03;;;;;;;;;;6274238;22;20148;-73
2022/08/14 07:14:40;;;;;;;9.50;7.93;;;;;;;;;;6274667;22;20861;-73
2022/08/14 07:17:06;;;;;;;8.93;8.03;;;;;;;;;;6273882;22;20190;-73
2022/08/14 07:19:31;;;;;;;8.07;7.00;;;;;;;;;;6274490;22;20358;-73
2022/08/14 07:21:56;;;;;;;8.60;7.30;;;;;;;;;;6273934;22;20818;-74
2022/08/14 07:24:21;;;;;;;8.13;7.32;;;;;;;;;;6273972;22;20354;-74
2022/08/14 07:26:46;;;;;;;7.70;6.97;;;;;;;;;;6274647;22;20175;-74
2022/08/14 07:29:12;;;;;;;7.57;6.95;;;;;;;;;;6273114;22;20410;-74
2022/08/14 07:31:37;;;;;;;7.90;6.97;;;;;;;;;;6273805;22;20155;-73
2022/08/14 07:34:02;;;;;;;7.30;6.55;;;;;;;;;;6274089;22;20148;-73
2022/08/14 07:36:27;;;;;;;8.40;7.00;;;;;;;;;;6274204;22;20274;-73
2022/08/14 07:38:53;;;;;;;9.37;7.50;;;;;;;;;;6272349;22;20149;-74
2022/08/14 07:41:18;;;;;;;8.48;7.40;;;;;;;;;;6274629;22;20198;-74
2022/08/14 07:43:43;;;;;;;7.53;6.80;;;;;;;;;;6274899;22;20604;-74
2022/08/14 07:46:09;;;;;;;8.00;7.20;;;;;;;;;;6274138;22;20149;-73
2022/08/14 07:48:38;;;;;;;8.17;7.00;;;;;;;;;;6274164;22;20168;-74
2022/08/14 07:51:04;;;;;;;7.97;7.22;;;;;;;;;;6273563;22;20499;-74
2022/08/14 07:53:29;;;;;;;8.15;7.40;;;;;;;;;;6273892;22;20183;-74
2022/08/14 07:55:54;;;;;;;8.65;6.85;;;;;;;;;;6273963;22;20148;-74
2022/08/14 07:58:19;;;;;;;8.27;7.47;;;;;;;;;;6273940;22;20179;-73
2022/08/14 08:00:45;;;;;;;7.60;6.70;;;;;;;;;;6273412;22;20665;-72
2022/08/14 08:03:10;;;;;;;7.47;6.78;;;;;;;;;;6273944;22;20373;-72
2022/08/14 08:05:37;;;;;;;8.95;7.00;;;;;;;;;;6272898;22;20148;-73
2022/08/14 08:08:03;;;;;;;8.90;7.00;;;;;;;;;;6272266;22;20164;-73
2022/08/14 08:10:31;;;;;;;8.23;7.18;;;;;;;;;;6273737;22;20181;-73
2022/08/14 08:12:58;;;;;;;7.10;6.50;;;;;;;;;;6272195;22;20608;-73
2022/08/14 08:15:24;;;;;;;7.53;6.65;;;;;;;;;;6273296;22;20148;-73
2022/08/14 08:17:50;;;;;;;8.50;7.18;;;;;;;;;;6274353;22;20170;-73
2022/08/14 08:20:17;;;;;;;7.72;6.80;;;;;;;;;;6274094;22;20152;-73
2022/08/14 08:22:42;;;;;;;8.05;7.25;;;;;;;;;;6272686;22;20615;-73
2022/08/14 08:25:08;;;;;;;11.00;6.37;;;;;;;;;;6274509;22;20155;-73
2022/08/14 08:27:33;;;;;;;6.15;5.65;;;;;;;;;;6274528;22;20393;-73
2022/08/14 08:30:03;;;;;;;6.97;6.37;;;;;;;;;;6274053;22;20581;-73
2022/08/14 08:32:36;;;;;;;7.13;6.43;;;;;;;;;;6273880;22;20358;-73
2022/08/14 08:35:01;;;;;;;7.32;6.45;;;;;;;;;;6274558;22;20133;-73
2022/08/14 08:37:27;;;;;;;6.72;6.13;;;;;;;;;;6273727;22;20214;-73
2022/08/14 08:39:52;;;;;;;7.20;6.10;;;;;;;;;;6273442;22;20148;-74
2022/08/14 08:42:24;;;;;;;6.57;5.93;;;;;;;;;;6271604;22;20148;-74
2022/08/14 08:44:53;;;;;;;8.48;7.35;;;;;;;;;;6268925;22;20505;-73
2022/08/14 08:47:18;;;;;;;7.35;6.65;;;;;;;;;;6271678;22;20250;-74
2022/08/14 08:49:44;;;;;;;8.87;6.77;;;;;;;;;;6274085;22;20171;-73
2022/08/14 08:52:10;;;;;;;7.20;6.35;;;;;;;;;;6272447;22;20145;-73
2022/08/14 08:54:36;;;;;;;7.20;6.30;;;;;;;;;;6272926;22;20144;-73
2022/08/14 08:57:02;;;;;;;6.63;6.03;;;;;;;;;;6271267;22;20164;-73
2022/08/14 08:59:29;;;;;;;6.50;5.90;;;;;;;;;;6273314;22;20511;-73
2022/08/14 09:01:59;;;;;;;6.25;5.75;;;;;;;;;;6272464;22;20197;-73
2022/08/14 09:04:25;;;;;;;5.93;5.35;;;;;;;;;;6270921;22;20210;-74
2022/08/14 09:06:51;;;;;;;6.82;6.18;;;;;;;;;;6272786;22;20191;-73
2022/08/14 09:09:18;;;;;;;6.40;5.70;;;;;;;;;;6273145;22;20623;-73
2022/08/14 09:11:43;;;;;;;6.25;5.65;;;;;;;;;;6273421;22;20152;-73
2022/08/14 09:14:08;;;;;;;6.05;5.45;;;;;;;;;;6272143;22;20274;-73
2022/08/14 09:16:34;;;;;;;6.07;5.37;;;;;;;;;;6273098;22;20151;-73
2022/08/14 09:18:59;;;;;;;5.88;5.30;;;;;;;;;;6272777;22;20144;-73
2022/08/14 09:21:25;;;;;;;6.35;5.78;;;;;;;;;;6271450;22;20236;-73
2022/08/14 09:23:51;;;;;;;6.68;6.07;;;;;;;;;;6273766;22;20657;-73
2022/08/14 09:26:16;;;;;;;7.65;5.38;;;;;;;;;;6272483;22;20151;-73
2022/08/14 09:28:41;;;;;;;5.20;4.80;;;;;;;;;;6272984;22;20167;-73
2022/08/14 09:31:08;;;;;;;6.00;5.40;;;;;;;;;;6271216;22;20481;-73
2022/08/14 09:33:44;;;;;;;5.93;5.32;;;;;;;;;;6275069;22;20148;-71
2022/08/14 09:36:25;;;;;;;7.05;5.20;;;;;;;;;;6273234;22;20131;-74
2022/08/14 09:38:52;;;;;;;6.53;5.22;;;;;;;;;;6274254;22;20139;-73
2022/08/14 09:41:18;;;;;;;7.32;5.80;;;;;;;;;;6276533;22;20299;-74
2022/08/14 09:44:02;;;;;;;7.35;4.70;;;;;;;;;;6275396;22;20215;-74
2022/08/14 09:46:27;;;;;;;8.48;5.82;;;;;;;;;;6275738;22;20140;-74
2022/08/14 09:49:06;;;;;;;7.40;6.33;;;;;;;;;;6273991;22;20626;-73
2022/08/14 09:51:32;;;;;;;8.73;5.65;;;;;;;;;;6273927;22;20357;-73
2022/08/14 09:54:10;;;;;;;6.30;5.80;;;;;;;;;;6275351;22;20140;-73
2022/08/14 09:56:45;;;;;;;8.35;6.30;;;;;;;;;;6271150;22;20132;-74
2022/08/14 09:59:15;;;;;;;6.63;6.00;;;;;;;;;;6274693;22;20515;-73
2022/08/14 10:01:40;;;;;;;5.32;4.82;;;;;;;;;;6272092;22;20496;-73
2022/08/14 10:04:15;;;;;;;6.00;5.50;;;;;;;;;;6271704;22;20242;-73
2022/08/14 10:06:43;;;;;;;6.82;5.70;;;;;;;;;;6274566;22;20391;-74
2022/08/14 10:09:10;;;;;;;5.20;4.70;;;;;;;;;;6274946;22;20186;-73
2022/08/14 10:11:37;;;;;;;6.88;4.70;;;;;;;;;;6272656;22;20226;-74
2022/08/14 10:14:18;;;;;;;6.28;5.75;;;;;;;;;;6272375;22;20190;-73
2022/08/14 10:16:44;;;;;;;5.90;5.40;;;;;;;;;;6273816;22;20163;-73
2022/08/14 10:19:12;;;;;;;5.43;4.43;;;;;;;;;;6274462;22;20147;-73
2022/08/14 10:21:38;;;;;;;6.45;4.95;;;;;;;;;;6272883;22;20152;-73
2022/08/14 10:24:04;;;;;;;5.03;4.57;;;;;;;;;;6272601;22;20236;-73
2022/08/14 10:26:30;;;;;;;6.60;4.80;;;;;;;;;;6275342;22;20143;-73
2022/08/14 10:29:03;;;;;;;4.53;4.20;;;;;;;;;;6274377;22;20230;-73
2022/08/14 10:31:30;;;;;;;4.10;3.60;;;;;;;;;;6275037;22;20128;-73
2022/08/14 10:33:57;;;;;;;5.80;3.85;;;;;;;;;;6275026;22;20595;-73
2022/08/14 10:36:29;;;;;;;7.00;4.00;;;;;;;;;;6272691;22;20144;-73
2022/08/14 10:39:01;;;;;;;4.38;3.97;;;;;;;;;;6272914;22;20178;-73
2022/08/14 10:41:34;;;;;;;7.05;4.28;;;;;;;;;;6273605;22;20148;-73
2022/08/14 10:44:07;;;;;;;4.10;3.80;;;;;;;;;;6273836;22;20594;-74
2022/08/14 10:46:40;;;;;;;4.00;3.67;;;;;;;;;;6273892;22;20629;-73
2022/08/14 10:49:08;;;;;;;7.88;4.43;;;;;;;;;;6274245;22;20197;-73
2022/08/14 10:51:33;;;;;;;5.22;4.72;;;;;;;;;;6274229;22;20152;-73
2022/08/14 10:54:04;;;;;;;4.25;3.92;;;;;;;;;;6273691;22;20462;-73
2022/08/14 10:56:32;;;;;;;4.75;3.17;;;;;;;;;;6274354;22;20211;-73
2022/08/14 10:59:01;;;;;;;6.40;4.80;;;;;;;;;;6272710;22;20534;-74
2022/08/14 11:01:30;;;;;;;5.25;4.68;;;;;;;;;;6273416;22;20218;-73
2022/08/14 11:03:56;;;;;;;6.82;4.13;;;;;;;;;;6273935;22;20144;-73
2022/08/14 11:06:21;;;;;;;5.35;4.60;;;;;;;;;;6272218;22;20202;-74
2022/08/14 11:08:47;;;;;;;6.50;5.00;;;;;;;;;;6273389;22;20213;-73
2022/08/14 11:11:12;;;;;;;6.95;4.88;;;;;;;;;;6273792;22;20144;-73
2022/08/14 11:13:42;;;;;;;6.00;4.72;;;;;;;;;;6270813;22;20571;-73
2022/08/14 11:16:07;;;;;;;4.53;4.13;;;;;;;;;;6273750;22;20151;-73
2022/08/14 11:18:33;;;;;;;4.57;4.17;;;;;;;;;;6273355;22;20549;-74
2022/08/14 11:20:59;;;;;;;5.13;4.35;;;;;;;;;;6273238;22;20396;-73
2022/08/14 11:23:27;;;;;;;4.57;4.20;;;;;;;;;;6274161;22;20650;-73
2022/08/14 11:25:53;;;;;;;5.15;4.15;;;;;;;;;;6271080;22;20144;-73
2022/08/14 11:28:21;;;;;;;4.55;4.03;;;;;;;;;;6272396;22;20639;-73
2022/08/14 11:30:47;;;;;;;4.35;3.97;;;;;;;;;;6273389;22;20174;-73
2022/08/14 11:33:13;;;;;;;4.53;3.63;;;;;;;;;;6274397;22;20140;-73
2022/08/14 11:35:38;;;;;;;4.32;3.92;;;;;;;;;;6271832;22;20147;-73
2022/08/14 11:38:05;;;;;;;5.32;4.05;;;;;;;;;;6273872;22;20193;-73
2022/08/14 11:40:33;;;;;;;4.30;4.00;;;;;;;;;;6270218;22;20144;-73
2022/08/14 11:43:00;;;;;;;5.15;4.07;;;;;;;;;;6274165;22;20152;-74
2022/08/14 11:45:27;;;;;;;5.10;3.95;;;;;;;;;;6273919;22;20490;-73
2022/08/14 11:47:54;;;;;;;4.47;3.65;;;;;;;;;;6273798;22;20509;-73
2022/08/14 11:50:23;;;;;;;4.28;3.88;;;;;;;;;;6269834;22;20175;-73
2022/08/14 11:52:49;;;;;;;5.22;3.92;;;;;;;;;;6271980;22;20595;-72
2022/08/14 11:55:14;;;;;;;3.63;3.33;;;;;;;;;;6273924;22;20219;-73
2022/08/14 11:57:40;;;;;;;5.18;3.60;;;;;;;;;;6272885;22;20175;-73
2022/08/14 12:00:08;;;;;;;6.18;3.25;;;;;;;;;;6272801;22;20591;-74
2022/08/14 12:02:33;;;;;;;4.57;3.70;;;;;;;;;;6272282;22;20148;-73
2022/08/14 12:04:58;;;;;;;4.10;3.73;;;;;;;;;;6270611;22;20479;-73
2022/08/14 12:07:24;;;;;;;5.10;3.40;;;;;;;;;;6273566;22;20388;-72
2022/08/14 12:09:53;;;;;;;5.72;4.07;;;;;;;;;;6272010;22;20427;-73
2022/08/14 12:12:22;;;;;;;3.92;3.60;;;;;;;;;;6273401;22;20156;-73
2022/08/14 12:14:52;;;;;;;4.00;3.70;;;;;;;;;;6273489;22;20154;-73
2022/08/14 12:17:18;;;;;;;5.10;3.78;;;;;;;;;;6273485;22;20183;-73
2022/08/14 12:19:45;;;;;;;3.60;3.28;;;;;;;;;;6273610;22;20209;-73
2022/08/14 12:22:10;;;;;;;3.40;3.20;;;;;;;;;;6271961;22;20144;-72
2022/08/14 12:24:35;;;;;;;3.40;3.03;;;;;;;;;;6279909;22;20218;-73
2022/08/14 12:27:00;;;;;;;6.13;3.10;;;;;;;;;;6281451;22;20251;-73
2022/08/14 12:29:25;;;;;;;3.37;3.07;;;;;;;;;;6282432;22;20171;-73
2022/08/14 12:31:58;;;;;;;3.83;3.10;;;;;;;;;;6279933;22;20193;-73
2022/08/14 12:34:28;;;;;;;3.50;2.80;;;;;;;;;;6282115;22;20471;-71
2022/08/14 12:37:02;;;;;;;4.55;3.10;;;;;;;;;;6283117;22;20172;-73
2022/08/14 12:39:27;;;;;;;3.63;3.33;;;;;;;;;;6307264;22;20156;-73
2022/08/14 12:41:55;;;;;;;4.67;3.20;;;;;;;;;;6283021;22;20159;-74
2022/08/14 12:44:31;;;;;;;2.90;2.70;;;;;;;;;;6282001;22;20170;-72
2022/08/14 12:47:02;;;;;;;3.30;3.00;;;;;;;;;;6281778;22;20163;-72
2022/08/14 12:49:28;;;;;;;4.80;3.05;;;;;;;;;;6284685;22;20168;-73
2022/08/14 12:51:57;;;;;;;4.18;2.95;;;;;;;;;;6288807;22;20555;-72
2022/08/14 12:54:22;;;;;;;4.50;3.50;;;;;;;;;;6289561;22;20164;-73
2022/08/14 12:56:48;;;;;;;3.50;3.03;;;;;;;;;;6288808;22;20171;-73
2022/08/14 12:59:13;;;;;;;3.05;2.85;;;;;;;;;;6288824;22;20182;-72
2022/08/14 13:01:39;;;;;;;3.63;3.30;;;;;;;;;;6287133;22;20153;-73
2022/08/14 13:04:07;;;;;;;4.95;2.70;;;;;;;;;;6284408;22;20144;-73
2022/08/14 13:06:33;;;;;;;3.20;2.90;;;;;;;;;;6284607;22;20603;-73
2022/08/14 13:08:58;;;;;;;2.70;2.50;;;;;;;;;;6285257;22;20165;-72
2022/08/14 13:11:25;;;;;;;4.40;3.00;;;;;;;;;;6281029;22;20476;-73
2022/08/14 13:13:54;;;;;;;3.10;2.80;;;;;;;;;;6283512;22;20148;-72
2022/08/14 13:16:20;;;;;;;3.63;3.10;;;;;;;;;;6285372;22;20140;-73
2022/08/14 13:18:45;;;;;;;3.47;3.25;;;;;;;;;;6284472;22;20626;-73
2022/08/14 13:21:12;;;;;;;3.42;3.13;;;;;;;;;;6286035;22;20177;-73
2022/08/14 13:23:39;;;;;;;3.30;3.10;;;;;;;;;;6286545;22;20154;-73
2022/08/14 13:26:05;;;;;;;3.25;2.92;;;;;;;;;;6312004;22;20156;-72
2022/08/14 13:28:33;;;;;;;4.95;3.38;;;;;;;;;;6285365;22;20163;-73
2022/08/14 13:30:59;;;;;;;3.88;3.53;;;;;;;;;;6311711;22;20197;-73
2022/08/14 13:33:25;;;;;;;5.43;3.30;;;;;;;;;;6286797;22;20167;-71
2022/08/14 13:35:50;;;;;;;3.92;3.53;;;;;;;;;;6288131;22;20598;-73
2022/08/14 13:38:19;;;;;;;3.13;2.92;;;;;;;;;;6287247;22;20653;-73
2022/08/14 13:40:44;;;;;;;3.30;2.97;;;;;;;;;;6286666;22;20177;-74
2022/08/14 13:43:11;;;;;;;3.38;3.08;;;;;;;;;;6286952;22;20174;-73
2022/08/14 13:45:36;;;;;;;3.70;3.40;;;;;;;;;;6288231;22;20171;-73
2022/08/14 13:48:02;;;;;;;5.05;3.33;;;;;;;;;;6289567;22;20164;-73
2022/08/14 13:50:27;;;;;;;5.05;3.40;;;;;;;;;;6290184;22;20163;-72
2022/08/14 13:52:52;;;;;;;4.05;3.65;;;;;;;;;;6289451;22;20194;-73
2022/08/14 13:55:28;;;;;;;3.67;3.38;;;;;;;;;;6291533;22;20150;-73
2022/08/14 13:57:57;;;;;;;3.85;3.50;;;;;;;;;;6284304;22;20526;-74
2022/08/14 14:00:23;;;;;;;4.28;3.50;;;;;;;;;;6284186;22;20152;-73
2022/08/14 14:02:50;;;;;;;4.30;3.70;;;;;;;;;;6282442;22;20181;-74
2022/08/14 14:05:17;;;;;;;4.18;3.45;;;;;;;;;;6281017;22;20213;-74
2022/08/14 14:07:48;;;;;;;4.50;3.63;;;;;;;;;;6283152;22;20641;-71
2022/08/14 14:10:15;;;;;;;4.20;3.80;;;;;;;;;;6285376;22;20156;-73
2022/08/14 14:12:41;;;;;;;5.30;3.67;;;;;;;;;;6282911;22;20147;-73
2022/08/14 14:15:07;;;;;;;3.30;3.10;;;;;;;;;;6284084;22;20151;-73
2022/08/14 14:17:34;;;;;;;3.83;3.53;;;;;;;;;;6280910;22;20168;-73
2022/08/14 14:20:00;;;;;;;4.85;3.67;;;;;;;;;;6286414;22;20148;-73
2022/08/14 14:22:26;;;;;;;7.28;3.80;;;;;;;;;;6285248;22;20148;-73
2022/08/14 14:24:52;;;;;;;3.85;3.22;;;;;;;;;;6287312;22;20156;-73
2022/08/14 14:27:18;;;;;;;3.65;3.35;;;;;;;;;;6286843;22;20235;-73
2022/08/14 14:29:46;;;;;;;4.03;3.63;;;;;;;;;;6286200;22;20168;-73
2022/08/14 14:32:11;;;;;;;4.18;3.88;;;;;;;;;;6288108;22;20147;-74
2022/08/14 14:34:38;;;;;;;3.80;3.50;;;;;;;;;;6287121;22;20148;-74
2022/08/14 14:37:04;;;;;;;3.58;3.38;;;;;;;;;;6286079;22;20639;-73
2022/08/14 14:39:30;;;;;;;4.65;3.70;;;;;;;;;;6286860;22;20483;-74
2022/08/14 14:41:58;;;;;;;4.13;3.40;;;;;;;;;;6287692;22;20206;-73
2022/08/14 14:44:31;;;;;;;3.85;3.50;;;;;;;;;;6288444;22;20154;-73
2022/08/14 14:46:57;;;;;;;4.03;3.63;;;;;;;;;;6290729;22;20194;-74
2022/08/14 14:49:23;;;;;;;4.05;3.75;;;;;;;;;;6292455;22;20168;-74
2022/08/14 14:51:48;;;;;;;3.85;3.42;;;;;;;;;;6292598;22;20151;-73
2022/08/14 14:54:15;;;;;;;4.30;3.50;;;;;;;;;;6293224;22;20144;-73
2022/08/14 14:56:41;;;;;;;3.97;3.47;;;;;;;;;;6293106;22;20163;-74
2022/08/14 14:59:07;;;;;;;3.85;3.55;;;;;;;;;;6277473;22;20595;-73